Time;durP1;ratioP1;P1;durP2;ratioP2;P2;SDS_P1;SDS_P2;PMS_P1;PMS_P2;Temp;Humidity;BMP_temperature;BMP_pressure;BME280_temperature;BME280_humidity;BME280_pressure;Samples;Min_cycle;Max_cycle;Signal;HPM_P1;HPM_P2
2022/03/25 00:00:10;;;;;;;55.42;33.00;;;;;;;8.22;100.00;102856.06;10153519;28;20536;-68
2022/03/25 00:05:07;;;;;;;57.28;34.72;;;;;;;8.09;100.00;102856.41;10131773;28;20423;-68
2022/03/25 00:10:05;;;;;;;54.97;34.50;;;;;;;8.10;100.00;102858.06;10143803;28;20058;-66
2022/03/25 00:15:01;;;;;;;57.53;34.13;;;;;;;8.01;100.00;102848.66;10130036;28;20050;-67
2022/03/25 00:19:58;;;;;;;58.42;34.47;;;;;;;7.97;100.00;102855.69;10152498;28;20047;-67
2022/03/25 00:24:54;;;;;;;62.58;35.70;;;;;;;7.90;100.00;102852.28;10150528;28;20456;-67
2022/03/25 00:29:51;;;;;;;59.50;34.20;;;;;;;7.85;100.00;102849.50;10147840;28;20125;-67
2022/03/25 00:34:48;;;;;;;60.17;34.35;;;;;;;7.78;100.00;102855.91;10151048;28;20042;-67
2022/03/25 00:39:44;;;;;;;57.58;34.15;;;;;;;7.72;100.00;102856.88;10151759;28;20042;-67
2022/03/25 00:44:41;;;;;;;57.22;33.78;;;;;;;7.62;100.00;102851.28;10150750;28;20534;-67
2022/03/25 00:49:38;;;;;;;58.38;33.80;;;;;;;7.60;100.00;102853.41;10151716;28;20057;-67
2022/03/25 00:54:36;;;;;;;55.05;33.53;;;;;;;7.52;100.00;102851.09;10138414;28;20046;-66
2022/03/25 00:59:32;;;;;;;56.90;33.83;;;;;;;7.42;100.00;102850.91;10151294;28;20080;-67
2022/03/25 01:04:29;;;;;;;58.30;34.80;;;;;;;7.34;100.00;102854.88;10129270;28;20053;-67
2022/03/25 01:09:26;;;;;;;57.10;32.60;;;;;;;7.32;100.00;102852.38;10149953;28;20046;-67
2022/03/25 01:14:23;;;;;;;58.75;34.45;;;;;;;7.23;100.00;102848.38;10150464;28;20057;-67
2022/03/25 01:19:20;;;;;;;59.63;33.67;;;;;;;7.22;100.00;102846.75;10150019;28;20038;-67
2022/03/25 01:24:17;;;;;;;56.22;32.13;;;;;;;7.14;100.00;102839.78;10150016;28;20651;-67
2022/03/25 01:29:13;;;;;;;53.65;32.40;;;;;;;7.08;100.00;102851.66;10147665;28;20071;-67
2022/03/25 01:34:10;;;;;;;57.90;33.80;;;;;;;7.10;100.00;102854.13;10134454;28;20060;-67
2022/03/25 01:39:06;;;;;;;58.33;34.25;;;;;;;7.05;100.00;102845.84;10149289;28;20566;-67
2022/03/25 01:44:04;;;;;;;60.30;35.30;;;;;;;6.94;100.00;102851.09;10149437;28;20905;-67
2022/03/25 01:49:00;;;;;;;64.30;36.60;;;;;;;6.94;100.00;102851.09;10148551;28;20050;-67
2022/03/25 01:54:09;;;;;;;59.58;34.55;;;;;;;6.89;100.00;102853.72;10131116;28;20050;-67
2022/03/25 01:59:05;;;;;;;59.50;36.28;;;;;;;6.87;100.00;102850.41;10146802;28;20051;-67
2022/03/25 02:04:02;;;;;;;57.90;33.92;;;;;;;6.81;100.00;102845.94;10148771;28;20512;-67
2022/03/25 02:08:58;;;;;;;56.72;33.65;;;;;;;6.76;100.00;102845.84;10149361;28;20053;-67
2022/03/25 02:13:55;;;;;;;60.22;35.28;;;;;;;6.70;100.00;102844.06;10148546;28;20046;-67
2022/03/25 02:18:51;;;;;;;65.60;34.20;;;;;;;6.61;100.00;102845.50;10148939;28;20089;-67
2022/03/25 02:23:48;;;;;;;64.63;35.15;;;;;;;6.56;100.00;102842.66;10148399;28;20129;-67
2022/03/25 02:28:45;;;;;;;59.13;34.65;;;;;;;6.55;100.00;102849.19;10148181;28;20038;-67
2022/03/25 02:33:43;;;;;;;61.55;35.08;;;;;;;6.42;100.00;102848.34;10149514;28;20038;-67
2022/03/25 02:38:40;;;;;;;60.22;34.38;;;;;;;6.42;100.00;102834.75;10147577;28;20076;-67
2022/03/25 02:43:37;;;;;;;57.53;34.63;;;;;;;6.41;100.00;102841.28;10145103;28;20043;-67
2022/03/25 02:48:34;;;;;;;57.28;34.28;;;;;;;6.37;100.00;102839.28;10147126;28;20043;-67
2022/03/25 02:53:31;;;;;;;60.40;34.58;;;;;;;6.33;100.00;102838.91;10148828;28;20073;-67
2022/03/25 02:58:27;;;;;;;57.95;35.33;;;;;;;6.27;100.00;102839.88;10137085;28;20134;-67
2022/03/25 03:03:24;;;;;;;53.38;33.50;;;;;;;6.24;100.00;102830.31;10117831;28;20066;-67
2022/03/25 03:08:21;;;;;;;58.05;35.28;;;;;;;6.18;100.00;102827.72;10148952;28;20077;-67
2022/03/25 03:13:17;;;;;;;61.22;35.85;;;;;;;6.14;100.00;102834.66;10117574;28;20117;-66
2022/03/25 03:18:14;;;;;;;59.72;35.85;;;;;;;6.07;100.00;102830.16;10134504;28;20078;-67
2022/03/25 03:23:11;;;;;;;62.63;35.63;;;;;;;6.03;100.00;102831.69;10130082;28;20050;-67
2022/03/25 03:28:07;;;;;;;62.25;35.42;;;;;;;6.01;100.00;102824.84;10151536;28;20547;-67
2022/03/25 03:33:05;;;;;;;60.58;33.65;;;;;;;5.98;100.00;102831.59;10152818;28;20054;-67
2022/03/25 03:38:03;;;;;;;57.67;34.05;;;;;;;5.98;100.00;102837.00;10153595;28;20101;-67
2022/03/25 03:43:01;;;;;;;61.28;34.83;;;;;;;5.87;100.00;102835.06;10129986;28;20855;-67
2022/03/25 03:47:57;;;;;;;63.22;35.67;;;;;;;5.82;100.00;102833.06;10153160;28;20486;-67
2022/03/25 03:52:54;;;;;;;59.63;34.67;;;;;;;5.74;100.00;102821.75;10130251;28;20077;-67
2022/03/25 03:57:50;;;;;;;55.47;33.38;;;;;;;5.77;100.00;102834.84;10152078;28;20097;-67
2022/03/25 04:02:47;;;;;;;56.92;33.88;;;;;;;5.72;100.00;102829.28;10154173;28;20101;-67
2022/03/25 04:07:46;;;;;;;59.05;33.58;;;;;;;5.62;100.00;102827.97;10150768;28;20464;-67
2022/03/25 04:12:43;;;;;;;64.45;36.40;;;;;;;5.62;100.00;102844.25;10153241;28;20085;-67
2022/03/25 04:17:40;;;;;;;59.83;35.38;;;;;;;5.57;100.00;102846.84;10151643;28;20073;-67
2022/03/25 04:22:37;;;;;;;58.78;35.85;;;;;;;5.54;100.00;102851.88;10153517;28;20477;-67
2022/03/25 04:27:44;;;;;;;64.50;37.92;;;;;;;5.60;100.00;102846.38;10147415;28;20182;-67
2022/03/25 04:32:40;;;;;;;58.72;35.00;;;;;;;5.53;100.00;102856.50;10151701;28;20129;-67
2022/03/25 04:37:37;;;;;;;59.97;34.50;;;;;;;5.47;100.00;102857.41;10122144;28;20084;-67
2022/03/25 04:42:33;;;;;;;54.40;33.83;;;;;;;5.42;100.00;102849.16;10152254;28;20042;-67
2022/03/25 04:47:30;;;;;;;61.55;34.95;;;;;;;5.38;100.00;102847.94;10150862;28;20552;-67
2022/03/25 04:52:26;;;;;;;56.65;34.00;;;;;;;5.36;100.00;102856.34;10138163;28;20055;-67
2022/03/25 04:57:23;;;;;;;59.95;34.53;;;;;;;5.30;100.00;102861.84;10145762;28;20100;-67
2022/03/25 05:02:20;;;;;;;62.70;35.50;;;;;;;5.32;100.00;102857.84;10149765;28;20077;-68
2022/03/25 05:07:18;;;;;;;61.20;36.75;;;;;;;5.28;100.00;102864.78;10149360;28;20058;-67
2022/03/25 05:12:14;;;;;;;61.40;34.05;;;;;;;5.22;100.00;102855.69;10150915;28;20054;-67
2022/03/25 05:17:11;;;;;;;65.03;36.17;;;;;;;5.25;100.00;102870.66;10149606;28;20081;-67
2022/03/25 05:22:08;;;;;;;67.97;34.58;;;;;;;5.22;100.00;102865.69;10150738;28;20081;-67
2022/03/25 05:27:04;;;;;;;63.83;35.75;;;;;;;5.21;100.00;102869.47;10126844;28;20050;-67
2022/03/25 05:32:01;;;;;;;75.22;37.45;;;;;;;5.23;100.00;102872.78;10151122;28;20069;-67
2022/03/25 05:36:57;;;;;;;63.83;35.65;;;;;;;5.22;100.00;102882.81;10149191;28;20149;-68
2022/03/25 05:41:54;;;;;;;66.95;37.33;;;;;;;5.26;100.00;102883.97;10148618;28;20045;-68
2022/03/25 05:46:50;;;;;;;65.30;38.05;;;;;;;5.36;100.00;102882.59;10148518;28;20082;-67
2022/03/25 05:51:47;;;;;;;66.20;38.15;;;;;;;5.39;100.00;102887.59;10150591;28;20050;-67
2022/03/25 05:56:43;;;;;;;71.95;39.00;;;;;;;5.46;100.00;102888.34;10143884;28;20043;-67
2022/03/25 06:01:40;;;;;;;69.05;40.45;;;;;;;5.50;100.00;102900.38;10125237;28;20130;-67
2022/03/25 06:06:37;;;;;;;71.32;40.03;;;;;;;5.61;100.00;102907.72;10137281;28;20811;-67
2022/03/25 06:11:33;;;;;;;76.22;41.05;;;;;;;5.65;100.00;102913.53;10118428;28;20054;-66
2022/03/25 06:16:30;;;;;;;78.80;42.80;;;;;;;5.78;100.00;102917.91;10136675;28;20050;-67
2022/03/25 06:21:26;;;;;;;75.82;42.78;;;;;;;5.87;100.00;102916.53;10149074;28;20457;-67
2022/03/25 06:26:24;;;;;;;74.93;39.95;;;;;;;5.96;100.00;102919.78;10147294;28;20042;-67
2022/03/25 06:31:20;;;;;;;85.15;44.65;;;;;;;6.00;100.00;102921.78;10149326;28;20078;-67
2022/03/25 06:36:18;;;;;;;75.90;41.08;;;;;;;6.08;100.00;102918.75;10149871;28;20054;-67
2022/03/25 06:41:14;;;;;;;82.28;45.53;;;;;;;6.23;100.00;102920.19;10157187;28;20085;-67
2022/03/25 06:46:11;;;;;;;75.10;43.60;;;;;;;6.36;100.00;102919.13;10155485;28;20073;-67
2022/03/25 06:51:09;;;;;;;84.78;47.25;;;;;;;6.44;100.00;102916.88;10156537;28;20133;-67
2022/03/25 06:56:06;;;;;;;81.90;45.50;;;;;;;6.57;100.00;102920.41;10154916;28;20057;-66
2022/03/25 07:01:05;;;;;;;83.03;44.78;;;;;;;6.63;100.00;102924.91;10155993;28;20136;-67
2022/03/25 07:06:04;;;;;;;84.93;48.22;;;;;;;6.83;100.00;102930.00;10154853;28;20511;-67
2022/03/25 07:11:01;;;;;;;88.10;47.65;;;;;;;6.87;100.00;102942.88;10155744;28;20039;-67
2022/03/25 07:15:58;;;;;;;85.75;48.75;;;;;;;6.95;100.00;102934.34;10154824;28;20733;-67
2022/03/25 07:20:58;;;;;;;89.25;47.30;;;;;;;7.08;100.00;102943.31;10155317;28;20489;-67
2022/03/25 07:25:54;;;;;;;86.35;46.03;;;;;;;7.26;100.00;102940.41;10137157;28;20108;-66
2022/03/25 07:30:51;;;;;;;88.88;47.78;;;;;;;7.30;100.00;102944.31;10151485;28;20066;-67
2022/03/25 07:35:47;;;;;;;95.20;51.13;;;;;;;7.43;100.00;102950.56;10153637;28;20077;-67
2022/03/25 07:40:44;;;;;;;94.97;51.40;;;;;;;7.63;100.00;102955.56;10155047;28;20531;-67
2022/03/25 07:45:41;;;;;;;91.20;51.95;;;;;;;7.72;100.00;102965.81;10153441;28;20073;-67
2022/03/25 07:50:38;;;;;;;89.78;51.40;;;;;;;7.90;100.00;102955.81;10153321;28;20595;-67
2022/03/25 07:55:34;;;;;;;86.78;48.67;;;;;;;8.05;100.00;102964.22;10153623;28;20050;-66
2022/03/25 08:00:31;;;;;;;88.53;51.13;;;;;;;8.27;100.00;102977.16;10153287;28;20117;-66
2022/03/25 08:05:29;;;;;;;91.65;50.67;;;;;;;8.45;100.00;102985.13;10152970;28;20047;-67
2022/03/25 08:10:27;;;;;;;91.10;51.58;;;;;;;8.64;100.00;102997.41;10153238;28;20046;-67
2022/03/25 08:15:30;;;;;;;85.45;46.45;;;;;;;8.86;100.00;102988.44;10153075;28;20046;-67
2022/03/25 08:20:39;;;;;;;87.20;44.22;;;;;;;9.10;100.00;102996.41;10153467;28;20153;-67
2022/03/25 08:30:51;;;;;;;75.72;43.30;;;;;;;9.54;100.00;103001.91;10152279;28;20038;-67
2022/03/25 08:35:48;;;;;;;78.63;44.33;;;;;;;9.72;100.00;102995.28;10134288;28;20085;-67
2022/03/25 08:40:45;;;;;;;75.90;42.75;;;;;;;9.92;100.00;102997.41;10145829;28;20129;-67
2022/03/25 08:46:03;;;;;;;73.78;42.03;;;;;;;10.16;100.00;102987.78;10121126;28;20046;-67
2022/03/25 08:51:00;;;;;;;71.47;40.65;;;;;;;10.30;100.00;102991.81;10151305;28;20065;-67
2022/03/25 08:55:56;;;;;;;69.22;38.45;;;;;;;10.45;100.00;102990.28;10151174;28;20085;-67
2022/03/25 09:00:53;;;;;;;67.63;37.90;;;;;;;10.61;100.00;102992.03;10114659;28;20042;-67
2022/03/25 09:05:50;;;;;;;62.30;35.90;;;;;;;10.75;100.00;102995.16;10132700;28;20047;-67
2022/03/25 09:10:47;;;;;;;62.80;34.55;;;;;;;10.87;100.00;102992.22;10151651;28;20516;-67
2022/03/25 09:15:43;;;;;;;54.92;32.58;;;;;;;11.08;100.00;102993.97;10148708;28;20053;-67
2022/03/25 09:20:40;;;;;;;54.55;30.85;;;;;;;11.28;100.00;102996.00;10133499;28;20767;-68
2022/03/25 09:25:36;;;;;;;51.65;29.73;;;;;;;11.44;100.00;102996.03;10149545;28;20504;-67
2022/03/25 09:30:33;;;;;;;56.40;31.33;;;;;;;11.58;98.38;103003.50;10150870;28;20508;-67
2022/03/25 09:35:31;;;;;;;53.58;30.42;;;;;;;11.75;98.95;103002.47;10149650;28;20042;-67
2022/03/25 09:40:28;;;;;;;55.67;31.33;;;;;;;11.88;98.01;103006.63;10142182;28;20074;-67
2022/03/25 09:45:27;;;;;;;52.47;29.55;;;;;;;12.03;94.89;102997.63;10128962;28;20555;-67
2022/03/25 09:50:25;;;;;;;56.42;31.63;;;;;;;12.18;91.84;103000.38;10122792;28;20047;-67
2022/03/25 09:55:22;;;;;;;52.22;30.10;;;;;;;12.44;91.40;103003.97;10128465;28;20572;-67
2022/03/25 10:00:19;;;;;;;49.40;28.55;;;;;;;12.71;91.92;103002.81;10149171;28;20129;-67
2022/03/25 10:05:20;;;;;;;47.72;28.58;;;;;;;12.92;86.22;103014.59;10149256;28;20546;-67
2022/03/25 10:10:20;;;;;;;48.60;27.83;;;;;;;12.99;80.82;103009.63;10118860;28;20049;-67
2022/03/25 10:15:21;;;;;;;49.83;28.65;;;;;;;13.13;77.77;103005.19;10135765;28;20397;-67
2022/03/25 10:20:22;;;;;;;46.20;27.10;;;;;;;13.45;77.35;103002.09;10119595;28;20153;-67
2022/03/25 10:25:49;;;;;;;47.65;26.38;;;;;;;13.72;69.52;103008.31;10135399;28;20133;-67
2022/03/25 10:30:50;;;;;;;44.53;27.40;;;;;;;14.20;70.28;103005.78;10148943;28;20046;-67
2022/03/25 10:35:57;;;;;;;53.05;29.55;;;;;;;14.74;66.48;103010.31;10146236;28;20050;-67
2022/03/25 10:40:56;;;;;;;41.00;28.30;;;;;;;15.24;62.36;103007.28;10156514;28;20785;-67
2022/03/25 10:45:53;;;;;;;42.53;25.67;;;;;;;15.29;61.61;102999.78;10154972;28;20090;-67
2022/03/25 10:51:01;;;;;;;39.90;25.60;;;;;;;15.58;61.85;103004.38;10139080;28;20122;-67
2022/03/25 10:56:01;;;;;;;49.90;28.00;;;;;;;15.80;60.86;102992.78;10155305;28;20047;-67
2022/03/25 11:00:58;;;;;;;42.63;22.92;;;;;;;16.20;60.22;103005.13;10155356;28;20097;-67
2022/03/25 11:05:56;;;;;;;42.63;22.92;;;;;;;16.41;59.77;103013.09;10154656;28;20117;-67
2022/03/25 11:10:53;;;;;;;39.53;24.05;;;;;;;16.66;56.81;103009.03;10128385;28;20097;-67
2022/03/25 11:15:52;;;;;;;39.40;22.23;;;;;;;16.97;55.38;103012.09;10137754;28;20484;-67
2022/03/25 11:20:52;;;;;;;38.38;22.13;;;;;;;17.13;54.08;103011.81;10120045;28;20102;-67
2022/03/25 11:25:56;;;;;;;39.78;21.77;;;;;;;17.49;55.08;103008.31;10136387;28;20097;-67
2022/03/25 11:31:01;;;;;;;41.67;24.88;;;;;;;17.42;50.92;103014.25;10147894;28;20386;-68
2022/03/25 11:36:15;;;;;;;38.15;22.88;;;;;;;17.62;49.60;103001.94;10153424;28;20046;-67
2022/03/25 11:41:26;;;;;;;38.20;21.60;;;;;;;17.94;47.84;102989.03;10154743;28;20493;-67
2022/03/25 11:46:22;;;;;;;40.35;21.40;;;;;;;18.29;44.56;102993.72;10130099;28;20428;-67
2022/03/25 11:51:30;;;;;;;34.55;19.95;;;;;;;18.54;43.40;102994.19;10153629;28;20398;-68
2022/03/25 11:56:46;;;;;;;37.15;18.20;;;;;;;18.80;42.47;102985.22;10153837;28;20700;-67
2022/03/25 12:01:42;;;;;;;35.33;18.17;;;;;;;19.29;41.33;102975.78;10153835;28;20054;-67
2022/03/25 12:07:02;;;;;;;38.47;16.45;;;;;;;19.76;37.66;102955.78;10152969;28;20077;-67
2022/03/25 12:11:59;;;;;;;31.10;17.55;;;;;;;20.37;37.82;102959.28;10153125;28;20097;-67
2022/03/25 12:17:07;;;;;;;30.33;18.13;;;;;;;21.13;37.31;102951.34;10152783;28;20073;-67
2022/03/25 12:22:25;;;;;;;30.08;16.20;;;;;;;21.61;36.69;102956.44;10151347;28;20050;-68
2022/03/25 12:27:23;;;;;;;25.10;15.90;;;;;;;21.55;36.15;102946.66;10140723;28;20554;-67
2022/03/25 12:32:22;;;;;;;28.85;17.20;;;;;;;21.55;35.23;102946.66;10154015;28;20050;-67
2022/03/25 12:37:27;;;;;;;27.15;16.30;;;;;;;21.76;35.77;102945.84;10148787;28;20069;-67
2022/03/25 12:42:27;;;;;;;28.90;15.52;;;;;;;22.46;34.50;102929.25;10153145;28;20133;-67
2022/03/25 12:47:31;;;;;;;24.15;14.68;;;;;;;22.59;34.10;102939.25;10146688;28;20085;-67
2022/03/25 12:52:28;;;;;;;23.85;15.18;;;;;;;22.72;32.61;102942.88;10151005;28;20053;-67
2022/03/25 12:57:32;;;;;;;27.50;15.55;;;;;;;23.14;33.20;102931.50;10146208;28;20050;-67
2022/03/25 13:02:31;;;;;;;27.38;16.77;;;;;;;23.29;32.83;102922.38;10151474;28;20074;-66
2022/03/25 13:07:29;;;;;;;30.67;16.33;;;;;;;22.30;33.25;102925.50;10150370;28;20142;-67
2022/03/25 13:12:37;;;;;;;27.73;17.55;;;;;;;22.76;32.10;102921.47;10151223;28;20050;-67
2022/03/25 13:17:37;;;;;;;24.88;15.77;;;;;;;23.04;31.83;102920.81;10149688;28;20096;-67
2022/03/25 13:22:36;;;;;;;22.25;14.95;;;;;;;23.41;32.29;102917.94;10122500;28;20057;-67
2022/03/25 13:27:32;;;;;;;23.55;15.48;;;;;;;23.82;32.40;102905.59;10146413;28;20101;-67
2022/03/25 13:32:32;;;;;;;25.05;15.30;;;;;;;24.19;30.93;102910.19;10113755;28;20042;-67
2022/03/25 13:37:29;;;;;;;27.23;16.00;;;;;;;24.47;29.77;102905.34;10124307;28;20051;-67
2022/03/25 13:42:34;;;;;;;27.65;16.75;;;;;;;23.77;29.80;102896.69;10150855;28;20097;-67
2022/03/25 13:47:31;;;;;;;23.25;14.88;;;;;;;24.21;30.08;102889.09;10144020;28;20046;-67
2022/03/25 13:52:27;;;;;;;27.60;15.55;;;;;;;24.01;29.48;102890.94;10150383;28;20086;-67
2022/03/25 13:57:24;;;;;;;24.55;16.58;;;;;;;24.02;29.80;102881.41;10144822;28;20050;-67
2022/03/25 14:02:30;;;;;;;23.80;15.32;;;;;;;23.79;29.50;102883.16;10149923;28;20059;-67
2022/03/25 14:07:28;;;;;;;24.70;13.95;;;;;;;23.76;29.26;102872.69;10148203;28;20104;-67
2022/03/25 14:12:26;;;;;;;26.67;16.13;;;;;;;23.79;29.31;102867.22;10150038;28;20562;-67
2022/03/25 14:17:28;;;;;;;27.20;15.85;;;;;;;23.01;29.52;102868.50;10148588;28;20050;-67
2022/03/25 14:22:24;;;;;;;26.80;15.03;;;;;;;23.63;29.46;102869.94;10119269;28;20055;-67
2022/03/25 14:27:23;;;;;;;25.95;15.52;;;;;;;23.95;29.80;102856.09;10142769;28;20121;-67
2022/03/25 14:32:20;;;;;;;23.60;14.20;;;;;;;23.84;30.10;102864.16;10149415;28;20055;-67
2022/03/25 14:37:17;;;;;;;24.40;15.32;;;;;;;24.01;29.16;102851.84;10140939;28;20042;-67
2022/03/25 14:42:14;;;;;;;20.80;13.52;;;;;;;23.67;29.96;102853.25;10141546;28;20061;-68
2022/03/25 14:47:12;;;;;;;18.63;12.98;;;;;;;23.92;29.98;102846.41;10147815;28;20054;-66
2022/03/25 14:52:10;;;;;;;20.38;12.38;;;;;;;23.70;30.36;102842.22;10149732;28;20527;-67
2022/03/25 14:57:09;;;;;;;20.70;11.70;;;;;;;23.42;29.40;102841.41;10143064;28;20542;-67
2022/03/25 15:02:09;;;;;;;18.23;11.00;;;;;;;23.43;30.75;102824.28;10156093;28;20050;-67
2022/03/25 15:07:08;;;;;;;19.70;11.00;;;;;;;23.43;31.00;102824.28;10153528;28;20060;-67
2022/03/25 15:12:07;;;;;;;22.10;11.70;;;;;;;22.57;32.21;102829.25;10156257;28;20097;-67
2022/03/25 15:17:04;;;;;;;19.55;11.02;;;;;;;22.00;33.22;102831.75;10150822;28;20081;-67
2022/03/25 15:22:01;;;;;;;21.73;12.00;;;;;;;21.47;34.72;102836.22;10155957;28;20101;-67
2022/03/25 15:26:58;;;;;;;20.20;11.23;;;;;;;21.02;35.59;102822.97;10150553;28;20116;-67
2022/03/25 15:37:13;;;;;;;21.15;11.02;;;;;;;21.28;35.37;102808.03;10144104;28;20519;-67
2022/03/25 15:42:10;;;;;;;24.20;12.35;;;;;;;21.38;35.14;102818.75;10133678;28;20062;-66
2022/03/25 15:47:13;;;;;;;24.10;12.02;;;;;;;21.61;34.90;102810.88;10147351;28;20058;-67
2022/03/25 15:52:09;;;;;;;20.48;11.55;;;;;;;21.03;34.84;102813.50;10154420;28;20054;-67
2022/03/25 15:57:07;;;;;;;24.13;12.25;;;;;;;20.64;34.62;102820.31;10149036;28;20133;-67
2022/03/25 16:02:04;;;;;;;28.08;13.93;;;;;;;20.71;35.04;102807.50;10153230;28;20054;-67
2022/03/25 16:07:01;;;;;;;23.63;13.95;;;;;;;21.04;35.05;102808.75;10152386;28;20057;-67
2022/03/25 16:11:59;;;;;;;27.67;14.70;;;;;;;20.58;35.53;102811.31;10113488;28;20476;-67
2022/03/25 16:16:56;;;;;;;29.65;14.20;;;;;;;19.94;37.50;102818.59;10143895;28;20125;-67
2022/03/25 16:21:55;;;;;;;25.58;13.90;;;;;;;19.42;38.54;102817.84;10153489;28;20053;-67
2022/03/25 16:39:25;;;;;;;26.85;14.70;;;;;;;19.35;38.78;102812.78;10143276;28;20118;-67
2022/03/25 16:44:23;;;;;;;28.70;14.82;;;;;;;18.94;39.39;102814.09;10144893;28;20100;-67
2022/03/25 16:49:19;;;;;;;28.10;13.23;;;;;;;18.28;40.12;102817.63;10150631;28;20073;-67
2022/03/25 16:54:16;;;;;;;25.33;12.48;;;;;;;17.97;40.78;102819.63;10150672;28;20412;-67
2022/03/25 16:59:12;;;;;;;21.10;11.95;;;;;;;17.88;41.15;102812.06;10151421;28;20142;-67
2022/03/25 17:04:29;;;;;;;25.10;11.63;;;;;;;17.61;42.30;102828.78;10141665;28;20662;-66
2022/03/25 17:09:26;;;;;;;24.33;14.57;;;;;;;17.57;43.22;102827.81;10150946;28;20074;-67
2022/03/25 17:14:22;;;;;;;32.33;16.10;;;;;;;17.03;45.37;102831.25;10133431;28;20540;-67
2022/03/25 17:19:19;;;;;;;29.30;14.75;;;;;;;16.74;47.58;102828.81;10144280;28;20492;-66
2022/03/25 17:24:15;;;;;;;38.97;19.08;;;;;;;16.50;49.75;102840.06;10116335;28;20054;-66
2022/03/25 17:29:12;;;;;;;42.22;19.05;;;;;;;16.22;53.91;102832.88;10143313;28;20050;-66
2022/03/25 17:34:09;;;;;;;38.28;21.80;;;;;;;16.02;58.79;102840.44;10119090;28;20057;-67
2022/03/25 17:39:06;;;;;;;48.20;23.88;;;;;;;15.74;63.00;102839.53;10147288;28;20089;-67
2022/03/25 17:44:02;;;;;;;47.72;23.40;;;;;;;15.62;64.88;102847.41;10149551;28;20077;-66
2022/03/25 17:48:59;;;;;;;47.35;27.17;;;;;;;15.46;68.23;102853.19;10125053;28;20062;-66
2022/03/25 17:53:56;;;;;;;47.08;27.70;;;;;;;15.20;70.83;102855.50;10116863;28;20129;-67
2022/03/25 17:58:52;;;;;;;49.72;26.00;;;;;;;15.02;72.80;102859.88;10142593;28;20133;-67
2022/03/25 18:03:49;;;;;;;42.50;25.52;;;;;;;14.97;74.96;102870.13;10115637;28;20085;-67
2022/03/25 18:08:46;;;;;;;52.40;28.73;;;;;;;14.79;74.75;102869.81;10142634;28;20046;-66
2022/03/25 18:13:44;;;;;;;54.47;28.90;;;;;;;14.79;74.99;102875.31;10115683;28;20074;-67
2022/03/25 18:18:42;;;;;;;45.47;27.40;;;;;;;14.64;75.63;102872.72;10128791;28;20520;-66
2022/03/25 18:23:38;;;;;;;50.90;27.52;;;;;;;14.47;76.80;102879.47;10114921;28;20128;-67
2022/03/25 18:28:35;;;;;;;44.70;29.08;;;;;;;14.43;77.51;102886.69;10139083;28;20416;-67
2022/03/25 18:33:31;;;;;;;51.15;31.60;;;;;;;14.32;79.65;102894.22;10154096;28;20100;-67
2022/03/25 18:38:28;;;;;;;49.83;29.27;;;;;;;14.26;81.18;102894.56;10149322;28;20109;-67
2022/03/25 18:43:25;;;;;;;53.65;32.55;;;;;;;14.13;82.31;102900.75;10154015;28;20050;-67
2022/03/25 18:48:21;;;;;;;56.17;31.08;;;;;;;13.86;84.60;102902.88;10154416;28;20326;-67
2022/03/25 18:53:18;;;;;;;58.28;30.65;;;;;;;13.74;85.38;102909.84;10144425;28;20465;-66
2022/03/25 18:58:14;;;;;;;63.13;33.58;;;;;;;13.48;88.33;102918.25;10147093;28;20062;-68
2022/03/25 19:03:11;;;;;;;59.10;34.53;;;;;;;13.29;90.82;102920.84;10155833;28;20074;-67
2022/03/25 19:08:09;;;;;;;62.22;34.38;;;;;;;13.25;92.14;102915.06;10154134;28;20496;-67
2022/03/25 19:13:06;;;;;;;66.97;35.30;;;;;;;12.98;95.31;102920.13;10155695;28;20043;-67
2022/03/25 19:18:02;;;;;;;66.05;37.20;;;;;;;12.92;97.75;102921.25;10147299;28;20452;-66
2022/03/25 19:22:58;;;;;;;71.03;39.47;;;;;;;12.71;100.00;102926.78;10116378;28;20509;-67
2022/03/25 19:27:55;;;;;;;70.65;40.75;;;;;;;12.39;100.00;102927.97;10148554;28;20074;-67
2022/03/25 19:32:52;;;;;;;80.00;42.38;;;;;;;12.48;100.00;102932.88;10156100;28;20137;-68
2022/03/25 19:37:48;;;;;;;70.20;40.63;;;;;;;12.43;100.00;102931.78;10153749;28;20508;-67
2022/03/25 19:42:46;;;;;;;76.97;41.42;;;;;;;12.23;100.00;102940.06;10154169;28;20456;-67
2022/03/25 19:47:43;;;;;;;73.05;39.08;;;;;;;12.10;100.00;102941.41;10153500;28;20081;-67
2022/03/25 19:52:41;;;;;;;78.20;44.15;;;;;;;11.93;100.00;102944.41;10155386;28;20397;-67
2022/03/25 19:57:38;;;;;;;77.13;43.92;;;;;;;11.97;100.00;102945.53;10151956;28;20497;-67
2022/03/25 20:02:36;;;;;;;84.03;45.25;;;;;;;11.63;100.00;102941.56;10154558;28;20133;-67
2022/03/25 20:07:33;;;;;;;78.38;43.70;;;;;;;11.78;100.00;102941.63;10152386;28;20374;-67
2022/03/25 20:12:30;;;;;;;77.97;43.55;;;;;;;11.50;100.00;102943.75;10153798;28;20042;-67
2022/03/25 20:17:26;;;;;;;83.40;46.53;;;;;;;11.42;100.00;102947.03;10152380;28;20054;-67
2022/03/25 20:22:25;;;;;;;77.50;44.13;;;;;;;11.12;100.00;102940.34;10153063;28;20459;-67
2022/03/25 20:27:22;;;;;;;89.38;47.70;;;;;;;11.00;100.00;102947.94;10152107;28;20046;-67
2022/03/25 20:32:20;;;;;;;89.15;50.88;;;;;;;10.90;100.00;102942.41;10120828;28;20078;-67
2022/03/25 20:37:17;;;;;;;87.50;46.40;;;;;;;10.92;100.00;102940.22;10146432;28;20151;-67
2022/03/25 20:42:15;;;;;;;91.35;50.47;;;;;;;10.65;100.00;102946.66;10152899;28;20412;-67
2022/03/25 20:47:17;;;;;;;90.78;50.70;;;;;;;10.71;100.00;102942.84;10150827;28;20043;-67
2022/03/25 20:52:13;;;;;;;94.50;49.75;;;;;;;10.60;100.00;102935.66;10152816;28;20042;-67
2022/03/25 20:57:10;;;;;;;91.85;50.47;;;;;;;10.46;100.00;102942.69;10150325;28;20077;-67
2022/03/25 21:02:07;;;;;;;101.45;54.63;;;;;;;10.30;100.00;102942.59;10134801;28;20500;-68
2022/03/25 21:07:04;;;;;;;95.93;47.85;;;;;;;10.03;100.00;102944.50;10150201;28;20056;-68
2022/03/25 21:12:01;;;;;;;104.07;54.58;;;;;;;9.97;100.00;102945.53;10151099;28;20058;-67
2022/03/25 21:16:58;;;;;;;103.95;54.67;;;;;;;9.96;100.00;102946.63;10150821;28;20062;-67
2022/03/25 21:21:55;;;;;;;102.80;51.22;;;;;;;9.80;100.00;102960.13;10133372;28;20046;-67
2022/03/25 21:26:51;;;;;;;101.43;54.90;;;;;;;9.67;100.00;102957.81;10141223;28;20137;-67
2022/03/25 21:31:48;;;;;;;108.57;54.72;;;;;;;9.65;100.00;102959.97;10150403;28;20150;-67
2022/03/25 21:36:45;;;;;;;107.82;54.13;;;;;;;9.52;100.00;102966.66;10149759;28;20108;-68
2022/03/25 21:41:42;;;;;;;98.50;52.80;;;;;;;9.30;100.00;102957.66;10150115;28;20050;-67
2022/03/25 21:46:38;;;;;;;103.53;54.50;;;;;;;9.40;100.00;102969.53;10149977;28;20708;-68
2022/03/25 21:51:35;;;;;;;96.68;52.58;;;;;;;9.42;100.00;102966.53;10150141;28;20508;-67
2022/03/25 21:56:31;;;;;;;106.82;57.75;;;;;;;9.18;100.00;102971.44;10147378;28;20141;-67
2022/03/25 22:01:28;;;;;;;118.10;58.78;;;;;;;9.31;100.00;102971.06;10110665;28;20082;-67
2022/03/25 22:06:25;;;;;;;105.88;55.15;;;;;;;9.24;100.00;102964.97;10135575;28;20081;-68
2022/03/25 22:11:21;;;;;;;112.72;59.05;;;;;;;9.24;100.00;102964.97;10150349;28;20043;-67
2022/03/25 22:16:18;;;;;;;112.22;59.90;;;;;;;9.06;100.00;102957.91;10149001;28;20133;-67
2022/03/25 22:21:14;;;;;;;115.93;61.92;;;;;;;9.09;100.00;102962.03;10150528;28;20043;-67
2022/03/25 22:26:11;;;;;;;120.45;63.47;;;;;;;8.91;100.00;102960.41;10144348;28;20046;-67
2022/03/25 22:31:08;;;;;;;132.52;66.15;;;;;;;8.85;100.00;102962.25;10149946;28;20108;-67
2022/03/25 22:36:05;;;;;;;117.80;61.97;;;;;;;8.82;100.00;102965.50;10148304;28;20050;-67